Aviation Digital Data Service (ADDS)

Output produced by METARs form (2209 UTC 24 March 2019)
found at http://www.aviationweather.gov/metar/data/
 
KRAP 241919Z 2419/2518 13008KT P6SM BKN010 OVC015 
     FM250000 08008KT 2SM BR OVC004 
     FM250600 12006KT 1SM -SN BR OVC002 
     FM251200 10007KT 2SM BR OVC004
       
KRBG 241720Z 2418/2518 VRB03KT P6SM BKN010 
     FM241900 VRB03KT P6SM SCT250 
     FM250600 VRB03KT P6SM SCT080 OVC250 
     FM251100 VRB03KT P6SM SCT030 OVC070 
     FM251400 VRB03KT P6SM -RA OVC025
       
KRBL 241728Z 2418/2518 32005KT P6SM SCT250 
     FM242200 16005KT P6SM BKN150 
     FM250600 32005KT P6SM OVC100 
     FM251200 34005KT 6SM -RA BR FEW025 BKN050 OVC070 
     FM251400 18007KT 4SM RA BR FEW015 OVC025
       
KRDD 241728Z 2418/2518 VRB03KT P6SM FEW050 BKN250 
     FM250600 VRB04KT P6SM OVC100 
     FM251200 02005KT P6SM -RA BKN050 OVC100 
     FM251400 05008KT 4SM RA BR BKN025 OVC050
       
KRDG 242006Z 2420/2518 24007KT P6SM BKN250 
     FM250400 VRB03KT P6SM OVC100 
     FM251100 36007KT P6SM OVC060
       
KRDM 241720Z 2418/2518 20008KT P6SM SCT080 
     FM250400 20006KT P6SM BKN150 
     FM250900 17008KT P6SM SCT100 BKN120 
     FM251600 18015G23KT P6SM VCSH SCT040 BKN060
       
TAF KRDR 241800Z 2418/2524 02012G18KT 9999 SCT020 QNH3032INS 
     BECMG 2423/2424 02006KT 9999 FEW020 QNH3030INS WND 18006KT AFT 2520
TXM01/2517Z TNM07/2508Z
       
KRDU 241958Z 2420/2518 22009KT P6SM FEW250 
     FM242300 20009KT P6SM BKN250 
     FM251000 22008KT P6SM BKN035 OVC080
       
KRIC 241720Z 2418/2518 23010KT P6SM BKN250 
     FM250200 21006KT P6SM BKN120 
     FM251600 17004KT P6SM OVC050
       
KRIL 241740Z 2418/2518 07006KT P6SM VCSH BKN040 OVC070 
     FM241900 27012G20KT P6SM VCTS BKN040CB OVC060 
     TEMPO 2419/2423 4SM -TSRA BKN030CB OVC040 
     FM242300 27013KT P6SM VCTS BKN060CB OVC070 
     FM250400 VRB04KT P6SM VCSH SCT060 BKN130 
     FM250600 VRB04KT P6SM FEW060 SCT150
       
TAF KRIV 242005Z 2420/2602 30009KT 9999 FEW025 SCT250 QNH3013INS 
     TEMPO 2421/2502 30010G15KT 
     BECMG 2502/2503 VRB05KT 9999 SKC QNH3010INS 
     BECMG 2519/2520 30009KT 9999 FEW025 SCT250 QNH3006INS 
     TEMPO 2521/2602 30012G18KT TX21/2422Z TN05/2514Z
       
KRIW 241726Z 2418/2518 VRB05KT P6SM SCT090 BKN150 
     FM242100 17006KT P6SM VCSH BKN070 
     FM250230 29013KT P6SM SCT070 BKN120 
     FM251400 VRB05KT P6SM FEW080 SCT200
       
KRKD 241933Z 2420/2518 25009KT P6SM FEW250 
     FM242100 25007KT P6SM FEW100 BKN200 
     FM250900 33007KT P6SM SCT150 AMD LTD TO CLD VIS AND WIND
       
KRKS 241726Z 2418/2518 16008KT P6SM VCSH SCT040 BKN070 
     FM242000 25016G22KT P6SM VCSH SCT020 BKN045 
     TEMPO 2420/2423 6SM -SHRASN SCT020 BKN035 
     FM250200 25014KT P6SM SCT060 BKN120 
     FM250700 25010KT P6SM FEW070 SCT200
       
KRME 242043Z 2421/2518 27010KT P6SM OVC120 
     FM250300 31005KT P6SM OVC035 
     FM250900 34005KT P6SM SKC 
     FM251400 29010KT P6SM SKC
       
KRNO 241732Z 2418/2518 16004KT P6SM SCT200 
     FM242300 18007KT P6SM BKN150 
     FM250900 16004KT P6SM BKN120 WS020/19035KT
       
KROA 241730Z 2418/2518 20007KT P6SM SCT250 
     FM242100 22009KT P6SM BKN200 
     FM250200 VRB04KT P6SM BKN080 
     FM251000 VRB03KT P6SM BKN060 
     FM251400 02007KT P6SM OVC040
       
KROC 242102Z 2421/2518 26018G28KT P6SM SCT080 BKN120 
     FM250100 27012KT P6SM BKN050 
     FM250300 33008KT P6SM BKN030 
     FM250800 01009KT P6SM SCT070
       
KROG 241720Z 2418/2518 21012KT P6SM BKN015 
     FM242000 23012KT P6SM BKN025 
     TEMPO 2421/2424 3SM -TSRA BKN025CB 
     FM250100 29005KT P6SM BKN050 
     FM250300 33007KT P6SM SCT250 
     FM251200 35008KT P6SM BKN015
       
KROW 241725Z 2418/2518 36006KT P6SM SCT200 
     FM242100 30012G18KT P6SM SKC 
     FM250200 33006KT P6SM SKC
       
KRSL 242039Z 2421/2518 33015KT P6SM BKN035 
     FM250000 36010KT P6SM BKN040 
     FM250900 01007KT P6SM BKN015
       
KRST 241725Z 2418/2518 07006KT P6SM OVC060 
     FM250200 05012KT P6SM OVC019 
     FM250700 05013KT P6SM OVC035 
     FM251100 05009KT P6SM SKC
       
KRSW 241734Z 2418/2518 11009KT P6SM FEW025 SCT250 
     FM242100 15007KT P6SM FEW050 SCT250 
     FM250200 VRB03KT P6SM FEW025 FEW250 
     FM251700 13005KT P6SM FEW030 SCT250
       
KRUT 242208Z 2422/2518 25008G18KT P6SM BKN150 
     FM250500 VRB03KT P6SM OVC025 
     FM250800 VRB04KT P6SM BKN050 
     FM251000 34006KT P6SM SKC
       
KRVS 241720Z 2418/2518 31005KT P6SM BKN015 
     FM242100 33006KT P6SM SCT025 
     FM251200 34007KT P6SM BKN015
       
KRWI 241741Z 2418/2518 22010KT P6SM FEW250 
     FM250000 VRB04KT P6SM BKN250
       
KRWL 241746Z 2418/2518 07003KT 2SM -RASN FEW040 BKN050 OVC060 
     FM242100 24010KT 2SM -RASN BR BKN050 
     FM250300 25017KT P6SM VCSH BKN100 OVC150 
     FM250700 25016G24KT P6SM SCT250
       
KRYY 241740Z 2418/2518 20009G18KT P6SM BKN250 
     FM250100 21003KT P6SM SCT200 
     FM250400 VRB03KT P6SM BKN080 
     FM251300 23006KT P6SM VCSH BKN050